sensor_id;sensor_type;location;lat;lon;timestamp;temperature;humidity
13436;DHT22;6790;49.520;8.504;2024-02-16T00:00:27;12.10;99.90
13436;DHT22;6790;49.520;8.504;2024-02-16T00:02:53;12.10;99.90
13436;DHT22;6790;49.520;8.504;2024-02-16T00:05:19;12.10;99.90
13436;DHT22;6790;49.520;8.504;2024-02-16T00:07:44;12.00;99.90
13436;DHT22;6790;49.520;8.504;2024-02-16T00:10:11;11.90;99.90
13436;DHT22;6790;49.520;8.504;2024-02-16T00:12:40;12.10;99.90
13436;DHT22;6790;49.520;8.504;2024-02-16T00:15:07;12.10;99.90
13436;DHT22;6790;49.520;8.504;2024-02-16T00:17:33;12.10;99.90
13436;DHT22;6790;49.520;8.504;2024-02-16T00:19:59;12.10;99.90
13436;DHT22;6790;49.520;8.504;2024-02-16T00:22:25;12.10;99.90
13436;DHT22;6790;49.520;8.504;2024-02-16T00:24:51;12.10;99.90
13436;DHT22;6790;49.520;8.504;2024-02-16T00:27:17;12.10;99.90
13436;DHT22;6790;49.520;8.504;2024-02-16T00:29:43;12.20;99.90
13436;DHT22;6790;49.520;8.504;2024-02-16T00:32:12;12.20;99.90
13436;DHT22;6790;49.520;8.504;2024-02-16T00:34:38;12.20;99.90
13436;DHT22;6790;49.520;8.504;2024-02-16T00:37:06;12.20;99.90
13436;DHT22;6790;49.520;8.504;2024-02-16T00:39:37;12.30;99.90
13436;DHT22;6790;49.520;8.504;2024-02-16T00:42:06;12.10;99.90
13436;DHT22;6790;49.520;8.504;2024-02-16T00:44:32;12.00;99.90
13436;DHT22;6790;49.520;8.504;2024-02-16T00:46:58;12.10;99.90
13436;DHT22;6790;49.520;8.504;2024-02-16T00:49:24;12.00;99.90
13436;DHT22;6790;49.520;8.504;2024-02-16T00:51:52;12.00;99.90
13436;DHT22;6790;49.520;8.504;2024-02-16T00:54:18;12.00;99.90
13436;DHT22;6790;49.520;8.504;2024-02-16T00:56:45;12.00;99.90
13436;DHT22;6790;49.520;8.504;2024-02-16T00:59:12;12.00;99.90
13436;DHT22;6790;49.520;8.504;2024-02-16T01:01:38;12.00;99.90
13436;DHT22;6790;49.520;8.504;2024-02-16T01:04:04;12.00;99.90
13436;DHT22;6790;49.520;8.504;2024-02-16T01:06:29;12.10;99.90
13436;DHT22;6790;49.520;8.504;2024-02-16T01:08:55;12.10;99.90
13436;DHT22;6790;49.520;8.504;2024-02-16T01:11:21;12.20;99.90
13436;DHT22;6790;49.520;8.504;2024-02-16T01:13:47;12.20;99.90
13436;DHT22;6790;49.520;8.504;2024-02-16T01:16:13;12.20;99.90
13436;DHT22;6790;49.520;8.504;2024-02-16T01:18:39;12.20;99.90
13436;DHT22;6790;49.520;8.504;2024-02-16T01:21:05;12.10;99.90
13436;DHT22;6790;49.520;8.504;2024-02-16T01:23:31;12.10;99.90
13436;DHT22;6790;49.520;8.504;2024-02-16T01:25:57;12.10;99.90
13436;DHT22;6790;49.520;8.504;2024-02-16T01:28:23;12.10;99.90
13436;DHT22;6790;49.520;8.504;2024-02-16T01:30:49;12.20;99.90
13436;DHT22;6790;49.520;8.504;2024-02-16T01:33:15;12.10;99.90
13436;DHT22;6790;49.520;8.504;2024-02-16T01:35:41;12.10;99.90
13436;DHT22;6790;49.520;8.504;2024-02-16T01:38:07;12.00;99.90
13436;DHT22;6790;49.520;8.504;2024-02-16T01:40:32;12.00;99.90
13436;DHT22;6790;49.520;8.504;2024-02-16T01:42:58;12.00;99.90
13436;DHT22;6790;49.520;8.504;2024-02-16T01:45:24;12.00;99.90
13436;DHT22;6790;49.520;8.504;2024-02-16T01:47:51;11.90;99.90
13436;DHT22;6790;49.520;8.504;2024-02-16T01:50:18;11.90;99.90
13436;DHT22;6790;49.520;8.504;2024-02-16T01:52:45;12.00;99.90
13436;DHT22;6790;49.520;8.504;2024-02-16T01:55:12;12.00;99.90
13436;DHT22;6790;49.520;8.504;2024-02-16T01:57:43;12.00;99.90
13436;DHT22;6790;49.520;8.504;2024-02-16T02:00:11;11.90;99.90
13436;DHT22;6790;49.520;8.504;2024-02-16T02:02:37;11.90;99.90
13436;DHT22;6790;49.520;8.504;2024-02-16T02:05:03;11.80;99.90
13436;DHT22;6790;49.520;8.504;2024-02-16T02:07:29;11.80;99.90
13436;DHT22;6790;49.520;8.504;2024-02-16T02:09:55;11.80;99.90
13436;DHT22;6790;49.520;8.504;2024-02-16T02:12:21;11.70;99.90
13436;DHT22;6790;49.520;8.504;2024-02-16T02:14:48;11.60;99.90
13436;DHT22;6790;49.520;8.504;2024-02-16T02:17:15;11.60;99.90
13436;DHT22;6790;49.520;8.504;2024-02-16T02:19:41;11.60;99.90
13436;DHT22;6790;49.520;8.504;2024-02-16T02:22:17;11.70;99.90
13436;DHT22;6790;49.520;8.504;2024-02-16T02:24:44;11.70;99.90
13436;DHT22;6790;49.520;8.504;2024-02-16T02:27:11;11.70;99.90
13436;DHT22;6790;49.520;8.504;2024-02-16T02:29:38;11.80;99.90
13436;DHT22;6790;49.520;8.504;2024-02-16T02:32:05;11.70;99.90
13436;DHT22;6790;49.520;8.504;2024-02-16T02:34:31;11.80;99.90
13436;DHT22;6790;49.520;8.504;2024-02-16T02:36:56;11.80;99.90
13436;DHT22;6790;49.520;8.504;2024-02-16T02:39:23;11.80;99.90
13436;DHT22;6790;49.520;8.504;2024-02-16T02:41:48;11.80;99.90
13436;DHT22;6790;49.520;8.504;2024-02-16T02:44:14;11.70;99.90
13436;DHT22;6790;49.520;8.504;2024-02-16T02:46:40;11.70;99.90
13436;DHT22;6790;49.520;8.504;2024-02-16T02:49:05;11.70;99.90
13436;DHT22;6790;49.520;8.504;2024-02-16T02:51:31;11.60;99.90
13436;DHT22;6790;49.520;8.504;2024-02-16T02:53:57;11.60;99.90
13436;DHT22;6790;49.520;8.504;2024-02-16T02:56:22;11.60;99.90
13436;DHT22;6790;49.520;8.504;2024-02-16T02:58:48;11.50;99.90
13436;DHT22;6790;49.520;8.504;2024-02-16T03:01:14;11.50;99.90
13436;DHT22;6790;49.520;8.504;2024-02-16T03:03:40;11.50;99.90
13436;DHT22;6790;49.520;8.504;2024-02-16T03:06:07;11.60;99.90
13436;DHT22;6790;49.520;8.504;2024-02-16T03:08:33;11.70;99.90
13436;DHT22;6790;49.520;8.504;2024-02-16T03:10:59;11.70;99.90
13436;DHT22;6790;49.520;8.504;2024-02-16T03:13:29;11.70;99.90
13436;DHT22;6790;49.520;8.504;2024-02-16T03:15:55;11.70;99.90
13436;DHT22;6790;49.520;8.504;2024-02-16T03:18:20;11.60;99.90
13436;DHT22;6790;49.520;8.504;2024-02-16T03:20:46;11.60;99.90
13436;DHT22;6790;49.520;8.504;2024-02-16T03:23:14;11.60;99.90
13436;DHT22;6790;49.520;8.504;2024-02-16T03:25:40;11.60;99.90
13436;DHT22;6790;49.520;8.504;2024-02-16T03:28:08;11.60;99.90
13436;DHT22;6790;49.520;8.504;2024-02-16T03:30:37;11.50;99.90
13436;DHT22;6790;49.520;8.504;2024-02-16T03:33:03;11.60;99.90
13436;DHT22;6790;49.520;8.504;2024-02-16T03:35:29;11.50;99.90
13436;DHT22;6790;49.520;8.504;2024-02-16T03:37:55;11.50;99.90
13436;DHT22;6790;49.520;8.504;2024-02-16T03:40:23;11.50;99.90
13436;DHT22;6790;49.520;8.504;2024-02-16T03:42:52;11.40;99.90
13436;DHT22;6790;49.520;8.504;2024-02-16T03:45:18;11.30;99.90
13436;DHT22;6790;49.520;8.504;2024-02-16T03:47:44;11.30;99.90
13436;DHT22;6790;49.520;8.504;2024-02-16T03:50:10;11.30;99.90
13436;DHT22;6790;49.520;8.504;2024-02-16T03:52:36;11.20;99.90
13436;DHT22;6790;49.520;8.504;2024-02-16T03:55:03;11.20;99.90
13436;DHT22;6790;49.520;8.504;2024-02-16T03:57:30;11.10;99.90
13436;DHT22;6790;49.520;8.504;2024-02-16T03:59:56;11.10;99.90
13436;DHT22;6790;49.520;8.504;2024-02-16T04:02:21;11.00;99.90
13436;DHT22;6790;49.520;8.504;2024-02-16T04:04:47;10.80;99.90
13436;DHT22;6790;49.520;8.504;2024-02-16T04:07:13;10.60;99.90
13436;DHT22;6790;49.520;8.504;2024-02-16T04:09:38;10.60;99.90
13436;DHT22;6790;49.520;8.504;2024-02-16T04:12:04;10.50;99.90
13436;DHT22;6790;49.520;8.504;2024-02-16T04:14:30;10.40;99.90
13436;DHT22;6790;49.520;8.504;2024-02-16T04:16:56;10.20;99.90
13436;DHT22;6790;49.520;8.504;2024-02-16T04:19:28;10.10;99.90
13436;DHT22;6790;49.520;8.504;2024-02-16T04:21:54;10.10;99.90
13436;DHT22;6790;49.520;8.504;2024-02-16T04:24:20;10.00;99.90
13436;DHT22;6790;49.520;8.504;2024-02-16T04:26:46;9.90;99.90
13436;DHT22;6790;49.520;8.504;2024-02-16T04:29:12;9.80;99.90
13436;DHT22;6790;49.520;8.504;2024-02-16T04:31:41;9.80;99.90
13436;DHT22;6790;49.520;8.504;2024-02-16T04:34:08;9.70;99.90
13436;DHT22;6790;49.520;8.504;2024-02-16T04:36:34;9.70;99.90
13436;DHT22;6790;49.520;8.504;2024-02-16T04:39:03;9.60;99.90
13436;DHT22;6790;49.520;8.504;2024-02-16T04:41:29;9.50;99.90
13436;DHT22;6790;49.520;8.504;2024-02-16T04:43:55;9.50;99.90
13436;DHT22;6790;49.520;8.504;2024-02-16T04:46:21;9.40;99.90
13436;DHT22;6790;49.520;8.504;2024-02-16T04:48:47;9.40;99.90
13436;DHT22;6790;49.520;8.504;2024-02-16T04:51:13;9.40;99.90
13436;DHT22;6790;49.520;8.504;2024-02-16T04:53:39;9.40;99.90
13436;DHT22;6790;49.520;8.504;2024-02-16T04:56:05;9.50;99.90
13436;DHT22;6790;49.520;8.504;2024-02-16T04:58:31;9.60;99.90
13436;DHT22;6790;49.520;8.504;2024-02-16T05:00:57;9.60;99.90
13436;DHT22;6790;49.520;8.504;2024-02-16T05:03:23;9.60;99.90
13436;DHT22;6790;49.520;8.504;2024-02-16T05:05:49;9.60;99.90
13436;DHT22;6790;49.520;8.504;2024-02-16T05:08:15;9.60;99.90
13436;DHT22;6790;49.520;8.504;2024-02-16T05:10:41;9.60;99.90
13436;DHT22;6790;49.520;8.504;2024-02-16T05:13:07;9.50;99.90
13436;DHT22;6790;49.520;8.504;2024-02-16T05:15:32;9.50;99.90
13436;DHT22;6790;49.520;8.504;2024-02-16T05:17:58;9.50;99.90
13436;DHT22;6790;49.520;8.504;2024-02-16T05:20:24;9.50;99.90
13436;DHT22;6790;49.520;8.504;2024-02-16T05:22:50;9.50;99.90
13436;DHT22;6790;49.520;8.504;2024-02-16T05:25:17;9.50;99.90
13436;DHT22;6790;49.520;8.504;2024-02-16T05:27:44;9.60;99.90
13436;DHT22;6790;49.520;8.504;2024-02-16T05:30:11;9.60;99.90
13436;DHT22;6790;49.520;8.504;2024-02-16T05:32:39;9.50;99.90
13436;DHT22;6790;49.520;8.504;2024-02-16T05:35:06;9.40;99.90
13436;DHT22;6790;49.520;8.504;2024-02-16T05:37:44;9.40;99.90
13436;DHT22;6790;49.520;8.504;2024-02-16T05:40:11;9.30;99.90
13436;DHT22;6790;49.520;8.504;2024-02-16T05:42:54;9.40;99.90
13436;DHT22;6790;49.520;8.504;2024-02-16T05:45:24;9.40;99.90
13436;DHT22;6790;49.520;8.504;2024-02-16T05:47:51;9.40;99.90
13436;DHT22;6790;49.520;8.504;2024-02-16T05:50:19;9.50;99.90
13436;DHT22;6790;49.520;8.504;2024-02-16T05:52:46;9.50;99.90
13436;DHT22;6790;49.520;8.504;2024-02-16T05:55:12;9.60;99.90
13436;DHT22;6790;49.520;8.504;2024-02-16T05:57:38;9.60;99.90
13436;DHT22;6790;49.520;8.504;2024-02-16T06:00:05;9.60;99.90
13436;DHT22;6790;49.520;8.504;2024-02-16T06:02:33;9.60;99.90
13436;DHT22;6790;49.520;8.504;2024-02-16T06:05:00;9.50;99.90
13436;DHT22;6790;49.520;8.504;2024-02-16T06:07:26;9.40;99.90
13436;DHT22;6790;49.520;8.504;2024-02-16T06:09:52;9.40;99.90
13436;DHT22;6790;49.520;8.504;2024-02-16T06:12:19;9.40;99.90
13436;DHT22;6790;49.520;8.504;2024-02-16T06:14:45;9.40;99.90
13436;DHT22;6790;49.520;8.504;2024-02-16T06:17:11;9.40;99.90
13436;DHT22;6790;49.520;8.504;2024-02-16T06:19:43;9.40;99.90
13436;DHT22;6790;49.520;8.504;2024-02-16T06:22:09;9.40;99.90
13436;DHT22;6790;49.520;8.504;2024-02-16T06:24:35;9.40;99.90
13436;DHT22;6790;49.520;8.504;2024-02-16T06:27:02;9.40;99.90
13436;DHT22;6790;49.520;8.504;2024-02-16T06:29:28;9.30;99.90
13436;DHT22;6790;49.520;8.504;2024-02-16T06:31:55;9.40;99.90
13436;DHT22;6790;49.520;8.504;2024-02-16T06:34:21;9.30;99.90
13436;DHT22;6790;49.520;8.504;2024-02-16T06:36:47;9.30;99.90
13436;DHT22;6790;49.520;8.504;2024-02-16T06:39:15;9.50;99.90
13436;DHT22;6790;49.520;8.504;2024-02-16T06:41:42;9.50;99.90
13436;DHT22;6790;49.520;8.504;2024-02-16T06:44:09;9.60;99.90
13436;DHT22;6790;49.520;8.504;2024-02-16T06:46:35;9.70;99.90
13436;DHT22;6790;49.520;8.504;2024-02-16T06:49:01;9.90;99.90
13436;DHT22;6790;49.520;8.504;2024-02-16T06:51:26;10.00;99.90
13436;DHT22;6790;49.520;8.504;2024-02-16T06:53:54;10.40;99.90
13436;DHT22;6790;49.520;8.504;2024-02-16T06:56:20;10.50;99.90
13436;DHT22;6790;49.520;8.504;2024-02-16T06:58:46;10.70;99.90
13436;DHT22;6790;49.520;8.504;2024-02-16T07:01:13;10.70;99.90
13436;DHT22;6790;49.520;8.504;2024-02-16T07:03:39;10.90;99.90
13436;DHT22;6790;49.520;8.504;2024-02-16T07:06:06;10.90;99.90
13436;DHT22;6790;49.520;8.504;2024-02-16T07:08:36;10.80;99.90
13436;DHT22;6790;49.520;8.504;2024-02-16T07:11:03;10.90;99.90
13436;DHT22;6790;49.520;8.504;2024-02-16T07:13:33;11.00;99.90
13436;DHT22;6790;49.520;8.504;2024-02-16T07:15:59;11.20;99.90
13436;DHT22;6790;49.520;8.504;2024-02-16T07:18:25;11.20;99.90
13436;DHT22;6790;49.520;8.504;2024-02-16T07:20:51;11.30;99.90
13436;DHT22;6790;49.520;8.504;2024-02-16T07:23:17;11.30;99.90
13436;DHT22;6790;49.520;8.504;2024-02-16T07:25:43;11.30;99.90
13436;DHT22;6790;49.520;8.504;2024-02-16T07:28:09;11.20;99.90
13436;DHT22;6790;49.520;8.504;2024-02-16T07:30:36;11.30;99.90
13436;DHT22;6790;49.520;8.504;2024-02-16T07:33:07;11.40;99.90
13436;DHT22;6790;49.520;8.504;2024-02-16T07:35:33;11.40;99.90
13436;DHT22;6790;49.520;8.504;2024-02-16T07:38:03;11.40;99.90
13436;DHT22;6790;49.520;8.504;2024-02-16T07:40:30;11.40;99.90
13436;DHT22;6790;49.520;8.504;2024-02-16T07:42:58;11.50;99.90
13436;DHT22;6790;49.520;8.504;2024-02-16T07:45:24;11.50;99.90
13436;DHT22;6790;49.520;8.504;2024-02-16T07:47:50;11.50;99.90
13436;DHT22;6790;49.520;8.504;2024-02-16T07:50:23;11.50;99.90
13436;DHT22;6790;49.520;8.504;2024-02-16T07:52:49;11.60;99.90
13436;DHT22;6790;49.520;8.504;2024-02-16T07:55:15;11.60;99.90
13436;DHT22;6790;49.520;8.504;2024-02-16T07:57:45;11.60;99.90
13436;DHT22;6790;49.520;8.504;2024-02-16T08:00:12;11.60;99.90
13436;DHT22;6790;49.520;8.504;2024-02-16T08:02:38;11.60;99.90
13436;DHT22;6790;49.520;8.504;2024-02-16T08:05:05;11.70;99.90
13436;DHT22;6790;49.520;8.504;2024-02-16T08:07:33;11.70;99.90
13436;DHT22;6790;49.520;8.504;2024-02-16T08:09:59;11.70;99.90
13436;DHT22;6790;49.520;8.504;2024-02-16T08:12:26;11.70;99.90
13436;DHT22;6790;49.520;8.504;2024-02-16T08:14:53;11.80;99.90
13436;DHT22;6790;49.520;8.504;2024-02-16T08:17:19;11.80;99.90
13436;DHT22;6790;49.520;8.504;2024-02-16T08:19:51;11.90;99.90
13436;DHT22;6790;49.520;8.504;2024-02-16T08:22:19;12.00;99.90
13436;DHT22;6790;49.520;8.504;2024-02-16T08:24:45;12.20;99.90
13436;DHT22;6790;49.520;8.504;2024-02-16T08:27:11;12.20;99.90
13436;DHT22;6790;49.520;8.504;2024-02-16T08:29:38;12.40;99.90
13436;DHT22;6790;49.520;8.504;2024-02-16T08:32:04;12.50;99.90
13436;DHT22;6790;49.520;8.504;2024-02-16T08:34:31;12.60;99.90
13436;DHT22;6790;49.520;8.504;2024-02-16T08:36:57;12.70;99.90
13436;DHT22;6790;49.520;8.504;2024-02-16T08:39:23;12.90;99.90
13436;DHT22;6790;49.520;8.504;2024-02-16T08:41:51;12.90;99.90
13436;DHT22;6790;49.520;8.504;2024-02-16T08:44:17;13.00;99.90
13436;DHT22;6790;49.520;8.504;2024-02-16T08:46:44;13.00;99.90
13436;DHT22;6790;49.520;8.504;2024-02-16T08:49:11;13.10;99.90
13436;DHT22;6790;49.520;8.504;2024-02-16T08:51:37;13.10;99.90
13436;DHT22;6790;49.520;8.504;2024-02-16T08:54:03;13.20;99.90
13436;DHT22;6790;49.520;8.504;2024-02-16T08:56:30;13.20;99.90
13436;DHT22;6790;49.520;8.504;2024-02-16T08:58:56;13.20;99.90
13436;DHT22;6790;49.520;8.504;2024-02-16T09:04:03;13.20;99.90
13436;DHT22;6790;49.520;8.504;2024-02-16T09:06:30;13.30;99.90
13436;DHT22;6790;49.520;8.504;2024-02-16T09:08:56;13.50;99.90
13436;DHT22;6790;49.520;8.504;2024-02-16T09:11:23;13.60;99.90
13436;DHT22;6790;49.520;8.504;2024-02-16T09:13:49;13.80;99.90
13436;DHT22;6790;49.520;8.504;2024-02-16T09:16:15;13.80;99.90
13436;DHT22;6790;49.520;8.504;2024-02-16T09:18:41;13.80;99.90
13436;DHT22;6790;49.520;8.504;2024-02-16T09:21:07;13.90;99.90
13436;DHT22;6790;49.520;8.504;2024-02-16T09:23:34;13.90;99.90
13436;DHT22;6790;49.520;8.504;2024-02-16T09:26:02;13.90;99.90
13436;DHT22;6790;49.520;8.504;2024-02-16T09:28:28;14.00;99.90
13436;DHT22;6790;49.520;8.504;2024-02-16T09:30:57;14.40;99.90
13436;DHT22;6790;49.520;8.504;2024-02-16T09:33:23;14.40;99.90
13436;DHT22;6790;49.520;8.504;2024-02-16T09:35:50;14.50;99.90
13436;DHT22;6790;49.520;8.504;2024-02-16T09:38:16;14.60;99.90
13436;DHT22;6790;49.520;8.504;2024-02-16T09:40:42;14.60;99.90
13436;DHT22;6790;49.520;8.504;2024-02-16T09:43:08;14.70;99.90
13436;DHT22;6790;49.520;8.504;2024-02-16T09:45:34;14.80;99.90
13436;DHT22;6790;49.520;8.504;2024-02-16T09:48:00;15.00;99.90
13436;DHT22;6790;49.520;8.504;2024-02-16T09:50:27;15.20;99.90
13436;DHT22;6790;49.520;8.504;2024-02-16T09:52:54;15.10;99.90
13436;DHT22;6790;49.520;8.504;2024-02-16T09:55:21;14.90;99.90
13436;DHT22;6790;49.520;8.504;2024-02-16T09:57:58;15.10;99.90
13436;DHT22;6790;49.520;8.504;2024-02-16T10:00:25;15.40;99.90
13436;DHT22;6790;49.520;8.504;2024-02-16T10:02:50;15.50;99.90
13436;DHT22;6790;49.520;8.504;2024-02-16T10:05:20;15.50;99.90
13436;DHT22;6790;49.520;8.504;2024-02-16T10:07:46;15.90;99.90
13436;DHT22;6790;49.520;8.504;2024-02-16T10:10:23;16.00;99.90
13436;DHT22;6790;49.520;8.504;2024-02-16T10:12:50;16.30;99.90
13436;DHT22;6790;49.520;8.504;2024-02-16T10:15:20;16.60;99.90
13436;DHT22;6790;49.520;8.504;2024-02-16T10:17:59;16.70;99.90
13436;DHT22;6790;49.520;8.504;2024-02-16T10:20:25;16.80;99.90
13436;DHT22;6790;49.520;8.504;2024-02-16T10:23:05;16.80;99.90
13436;DHT22;6790;49.520;8.504;2024-02-16T10:25:32;16.90;99.90
13436;DHT22;6790;49.520;8.504;2024-02-16T10:27:58;17.20;99.90
13436;DHT22;6790;49.520;8.504;2024-02-16T10:30:35;17.40;99.90
13436;DHT22;6790;49.520;8.504;2024-02-16T10:33:06;17.50;99.90
13436;DHT22;6790;49.520;8.504;2024-02-16T10:35:37;17.40;99.90
13436;DHT22;6790;49.520;8.504;2024-02-16T10:38:04;17.30;99.90
13436;DHT22;6790;49.520;8.504;2024-02-16T10:40:38;17.00;99.90
13436;DHT22;6790;49.520;8.504;2024-02-16T10:43:05;16.90;99.90
13436;DHT22;6790;49.520;8.504;2024-02-16T10:45:33;16.80;99.90
13436;DHT22;6790;49.520;8.504;2024-02-16T10:48:00;17.00;99.90
13436;DHT22;6790;49.520;8.504;2024-02-16T10:50:27;17.20;99.90
13436;DHT22;6790;49.520;8.504;2024-02-16T10:52:54;17.30;99.90
13436;DHT22;6790;49.520;8.504;2024-02-16T10:55:22;17.20;99.90
13436;DHT22;6790;49.520;8.504;2024-02-16T10:57:49;17.30;99.90
13436;DHT22;6790;49.520;8.504;2024-02-16T11:00:16;17.30;99.90
13436;DHT22;6790;49.520;8.504;2024-02-16T11:02:59;17.70;99.90
13436;DHT22;6790;49.520;8.504;2024-02-16T11:05:40;18.00;99.90
13436;DHT22;6790;49.520;8.504;2024-02-16T11:08:15;18.00;99.90
13436;DHT22;6790;49.520;8.504;2024-02-16T11:10:41;17.90;99.90
13436;DHT22;6790;49.520;8.504;2024-02-16T11:13:24;18.10;99.90
13436;DHT22;6790;49.520;8.504;2024-02-16T11:16:01;18.20;99.90
13436;DHT22;6790;49.520;8.504;2024-02-16T11:18:37;18.00;99.90
13436;DHT22;6790;49.520;8.504;2024-02-16T11:21:17;18.20;99.90
13436;DHT22;6790;49.520;8.504;2024-02-16T11:23:44;18.30;99.90
13436;DHT22;6790;49.520;8.504;2024-02-16T11:26:11;18.00;99.90
13436;DHT22;6790;49.520;8.504;2024-02-16T11:28:40;18.20;99.90
13436;DHT22;6790;49.520;8.504;2024-02-16T11:31:07;18.00;99.90
13436;DHT22;6790;49.520;8.504;2024-02-16T11:33:33;17.90;99.90
13436;DHT22;6790;49.520;8.504;2024-02-16T11:36:00;18.10;99.90
13436;DHT22;6790;49.520;8.504;2024-02-16T11:38:27;18.10;99.90
13436;DHT22;6790;49.520;8.504;2024-02-16T11:40:57;17.90;99.90
13436;DHT22;6790;49.520;8.504;2024-02-16T11:43:24;17.90;99.90
13436;DHT22;6790;49.520;8.504;2024-02-16T11:45:51;17.80;99.90
13436;DHT22;6790;49.520;8.504;2024-02-16T11:48:21;17.80;99.90
13436;DHT22;6790;49.520;8.504;2024-02-16T11:51:09;17.90;99.90
13436;DHT22;6790;49.520;8.504;2024-02-16T11:53:34;18.00;99.90
13436;DHT22;6790;49.520;8.504;2024-02-16T11:56:00;18.00;99.90
13436;DHT22;6790;49.520;8.504;2024-02-16T11:58:26;18.10;99.90
13436;DHT22;6790;49.520;8.504;2024-02-16T12:00:53;18.10;99.90
13436;DHT22;6790;49.520;8.504;2024-02-16T12:03:23;18.00;99.90
13436;DHT22;6790;49.520;8.504;2024-02-16T12:05:53;17.90;99.90
13436;DHT22;6790;49.520;8.504;2024-02-16T12:08:23;17.70;99.90
13436;DHT22;6790;49.520;8.504;2024-02-16T12:10:56;17.60;99.90
13436;DHT22;6790;49.520;8.504;2024-02-16T12:13:22;17.50;99.90
13436;DHT22;6790;49.520;8.504;2024-02-16T12:15:50;17.40;99.90
13436;DHT22;6790;49.520;8.504;2024-02-16T12:21:02;17.60;99.90
13436;DHT22;6790;49.520;8.504;2024-02-16T12:23:30;17.70;99.90
13436;DHT22;6790;49.520;8.504;2024-02-16T12:26:02;17.90;99.90
13436;DHT22;6790;49.520;8.504;2024-02-16T12:28:30;18.10;99.90
13436;DHT22;6790;49.520;8.504;2024-02-16T12:30:59;18.10;99.90
13436;DHT22;6790;49.520;8.504;2024-02-16T12:33:25;18.40;99.90
13436;DHT22;6790;49.520;8.504;2024-02-16T12:35:52;18.40;99.90
13436;DHT22;6790;49.520;8.504;2024-02-16T12:38:18;18.20;99.90
13436;DHT22;6790;49.520;8.504;2024-02-16T12:40:45;18.10;99.90
13436;DHT22;6790;49.520;8.504;2024-02-16T12:43:14;18.20;99.90
13436;DHT22;6790;49.520;8.504;2024-02-16T12:45:43;18.40;99.90
13436;DHT22;6790;49.520;8.504;2024-02-16T12:48:08;18.40;99.90
13436;DHT22;6790;49.520;8.504;2024-02-16T12:50:39;18.30;99.90
13436;DHT22;6790;49.520;8.504;2024-02-16T12:53:07;18.50;99.90
13436;DHT22;6790;49.520;8.504;2024-02-16T12:55:33;18.60;99.90
13436;DHT22;6790;49.520;8.504;2024-02-16T12:57:58;18.80;99.90
13436;DHT22;6790;49.520;8.504;2024-02-16T13:00:24;18.80;99.90
13436;DHT22;6790;49.520;8.504;2024-02-16T13:02:50;18.70;99.90
13436;DHT22;6790;49.520;8.504;2024-02-16T13:05:16;18.60;99.90
13436;DHT22;6790;49.520;8.504;2024-02-16T13:07:42;18.90;99.90
13436;DHT22;6790;49.520;8.504;2024-02-16T13:10:08;19.10;99.90
13436;DHT22;6790;49.520;8.504;2024-02-16T13:12:34;18.90;99.90
13436;DHT22;6790;49.520;8.504;2024-02-16T13:15:02;18.90;99.90
13436;DHT22;6790;49.520;8.504;2024-02-16T13:17:30;18.70;99.90
13436;DHT22;6790;49.520;8.504;2024-02-16T13:19:55;18.60;99.90
13436;DHT22;6790;49.520;8.504;2024-02-16T13:22:28;18.30;99.90
13436;DHT22;6790;49.520;8.504;2024-02-16T13:24:54;18.30;99.90
13436;DHT22;6790;49.520;8.504;2024-02-16T13:27:20;18.10;99.90
13436;DHT22;6790;49.520;8.504;2024-02-16T13:29:45;18.00;99.90
13436;DHT22;6790;49.520;8.504;2024-02-16T13:32:11;17.90;99.90
13436;DHT22;6790;49.520;8.504;2024-02-16T13:34:37;17.90;99.90
13436;DHT22;6790;49.520;8.504;2024-02-16T13:37:02;17.90;99.90
13436;DHT22;6790;49.520;8.504;2024-02-16T13:39:28;17.80;99.90
13436;DHT22;6790;49.520;8.504;2024-02-16T13:41:54;17.70;99.90
13436;DHT22;6790;49.520;8.504;2024-02-16T13:44:23;17.70;99.90
13436;DHT22;6790;49.520;8.504;2024-02-16T13:46:49;17.60;99.90
13436;DHT22;6790;49.520;8.504;2024-02-16T13:49:15;17.50;99.90
13436;DHT22;6790;49.520;8.504;2024-02-16T13:51:42;17.40;99.90
13436;DHT22;6790;49.520;8.504;2024-02-16T13:54:08;17.20;99.90
13436;DHT22;6790;49.520;8.504;2024-02-16T13:56:33;17.10;99.90
13436;DHT22;6790;49.520;8.504;2024-02-16T13:59:02;16.90;99.90
13436;DHT22;6790;49.520;8.504;2024-02-16T14:01:28;16.90;99.90
13436;DHT22;6790;49.520;8.504;2024-02-16T14:03:55;16.90;99.90
13436;DHT22;6790;49.520;8.504;2024-02-16T14:06:21;16.80;99.90
13436;DHT22;6790;49.520;8.504;2024-02-16T14:08:46;16.70;99.90
13436;DHT22;6790;49.520;8.504;2024-02-16T14:11:14;16.70;99.90
13436;DHT22;6790;49.520;8.504;2024-02-16T14:13:40;16.50;99.90
13436;DHT22;6790;49.520;8.504;2024-02-16T14:16:06;16.50;99.90
13436;DHT22;6790;49.520;8.504;2024-02-16T14:18:33;16.40;99.90
13436;DHT22;6790;49.520;8.504;2024-02-16T14:20:58;16.30;99.90
13436;DHT22;6790;49.520;8.504;2024-02-16T14:23:24;16.30;99.90
13436;DHT22;6790;49.520;8.504;2024-02-16T14:25:50;16.30;99.90
13436;DHT22;6790;49.520;8.504;2024-02-16T14:28:15;16.20;99.90
13436;DHT22;6790;49.520;8.504;2024-02-16T14:30:41;16.20;99.90
13436;DHT22;6790;49.520;8.504;2024-02-16T14:33:07;16.10;99.90
13436;DHT22;6790;49.520;8.504;2024-02-16T14:35:33;16.00;99.90
13436;DHT22;6790;49.520;8.504;2024-02-16T14:38:02;15.90;99.90
13436;DHT22;6790;49.520;8.504;2024-02-16T14:40:29;15.70;99.90
13436;DHT22;6790;49.520;8.504;2024-02-16T14:42:54;15.60;99.90
13436;DHT22;6790;49.520;8.504;2024-02-16T14:45:20;15.40;99.90
13436;DHT22;6790;49.520;8.504;2024-02-16T14:47:47;15.20;99.90
13436;DHT22;6790;49.520;8.504;2024-02-16T14:50:13;15.10;99.90
13436;DHT22;6790;49.520;8.504;2024-02-16T14:52:39;14.90;99.90
13436;DHT22;6790;49.520;8.504;2024-02-16T14:55:06;14.90;99.90
13436;DHT22;6790;49.520;8.504;2024-02-16T14:57:39;14.80;99.90
13436;DHT22;6790;49.520;8.504;2024-02-16T15:00:08;14.80;99.90
13436;DHT22;6790;49.520;8.504;2024-02-16T15:02:36;14.70;99.90
13436;DHT22;6790;49.520;8.504;2024-02-16T15:05:06;14.70;99.90
13436;DHT22;6790;49.520;8.504;2024-02-16T15:07:32;14.70;99.90
13436;DHT22;6790;49.520;8.504;2024-02-16T15:09:59;14.70;99.90
13436;DHT22;6790;49.520;8.504;2024-02-16T15:12:24;14.60;99.90
13436;DHT22;6790;49.520;8.504;2024-02-16T15:14:50;14.60;99.90
13436;DHT22;6790;49.520;8.504;2024-02-16T15:17:16;14.50;99.90
13436;DHT22;6790;49.520;8.504;2024-02-16T15:19:43;14.60;99.90
13436;DHT22;6790;49.520;8.504;2024-02-16T15:22:09;14.60;99.90
13436;DHT22;6790;49.520;8.504;2024-02-16T15:24:35;14.50;99.90
13436;DHT22;6790;49.520;8.504;2024-02-16T15:27:01;14.50;99.90
13436;DHT22;6790;49.520;8.504;2024-02-16T15:29:27;14.50;99.90
13436;DHT22;6790;49.520;8.504;2024-02-16T15:31:53;14.40;99.90
13436;DHT22;6790;49.520;8.504;2024-02-16T15:34:20;14.40;99.90
13436;DHT22;6790;49.520;8.504;2024-02-16T15:36:47;14.40;99.90
13436;DHT22;6790;49.520;8.504;2024-02-16T15:39:13;14.30;99.90
13436;DHT22;6790;49.520;8.504;2024-02-16T15:41:39;14.20;99.90
13436;DHT22;6790;49.520;8.504;2024-02-16T15:44:04;14.20;99.90
13436;DHT22;6790;49.520;8.504;2024-02-16T15:46:30;14.10;99.90
13436;DHT22;6790;49.520;8.504;2024-02-16T15:48:56;14.00;99.90
13436;DHT22;6790;49.520;8.504;2024-02-16T15:51:22;14.00;99.90